Time;durP1;ratioP1;P1;durP2;ratioP2;P2;SDS_P1;SDS_P2;PMS_P1;PMS_P2;Temp;Humidity;BMP_temperature;BMP_pressure;BME280_temperature;BME280_humidity;BME280_pressure;Samples;Min_cycle;Max_cycle;Signal;HPM_P1;HPM_P2
2023/09/19 00:04:44;;;;;;;;;;;;;;;17.36;100.00;95350.63;10524640;28;1861;-76
2023/09/19 00:09:48;;;;;;;;;;;;;;;17.27;100.00;95348.75;10525033;28;2087;-76
2023/09/19 00:14:52;;;;;;;;;;;;;;;17.27;100.00;95356.91;10512741;28;2588;-75
2023/09/19 00:19:57;;;;;;;;;;;;;;;17.31;100.00;95350.84;10508162;28;1992;-75
2023/09/19 00:25:02;;;;;;;;;;;;;;;17.32;100.00;95360.59;10513666;28;1970;-75
2023/09/19 00:30:06;;;;;;;;;;;;;;;17.31;100.00;95364.44;10522412;28;1900;-73
2023/09/19 00:35:10;;;;;;;;;;;;;;;17.29;100.00;95362.81;10521851;28;1889;-74
2023/09/19 00:40:18;;;;;;;;;;;;;;;17.26;100.00;95366.19;10518935;28;4749;-77
2023/09/19 00:45:22;;;;;;;;;;;;;;;17.26;100.00;95368.13;10520813;28;2158;-76
2023/09/19 00:50:25;;;;;;;;;;;;;;;17.37;100.00;95377.50;10527157;28;1858;-78
2023/09/19 00:55:37;;;;;;;;;;;;;;;17.18;100.00;95383.31;10528957;28;1802;-75
2023/09/19 01:00:40;;;;;;;;;;;;;;;17.08;100.00;95397.25;10531557;28;2667;-76
2023/09/19 01:05:43;;;;;;;;;;;;;;;17.08;100.00;95399.97;10533928;28;1975;-77
2023/09/19 01:10:51;;;;;;;;;;;;;;;17.06;100.00;95398.69;10532482;28;1986;-77
2023/09/19 01:15:54;;;;;;;;;;;;;;;17.16;100.00;95401.06;10530375;28;1991;-76
2023/09/19 01:21:00;;;;;;;;;;;;;;;17.07;100.00;95413.88;10536545;28;2038;-75
2023/09/19 01:26:05;;;;;;;;;;;;;;;17.14;100.00;95420.38;10531851;28;2030;-76
2023/09/19 01:31:10;;;;;;;;;;;;;;;17.20;100.00;95429.97;10510172;28;1970;-76
2023/09/19 01:36:13;;;;;;;;;;;;;;;17.15;100.00;95426.63;10533234;28;1956;-76
2023/09/19 01:41:16;;;;;;;;;;;;;;;17.17;100.00;95430.59;10532002;28;4803;-76
2023/09/19 01:46:20;;;;;;;;;;;;;;;17.05;100.00;95437.81;10506512;28;2539;-76
2023/09/19 01:51:24;;;;;;;;;;;;;;;17.16;100.00;95439.06;10527055;28;1953;-75
2023/09/19 01:56:29;;;;;;;;;;;;;;;17.19;100.00;95446.59;10527716;28;1953;-75
2023/09/19 02:01:35;;;;;;;;;;;;;;;17.21;100.00;95436.19;10531653;28;1923;-75
2023/09/19 02:06:40;;;;;;;;;;;;;;;17.26;100.00;95434.09;10507119;28;1968;-75
2023/09/19 02:11:43;;;;;;;;;;;;;;;17.29;100.00;95433.44;10507865;28;2177;-77
2023/09/19 02:16:47;;;;;;;;;;;;;;;17.17;100.00;95435.22;10512014;28;2055;-76
2023/09/19 02:21:53;;;;;;;;;;;;;;;17.16;100.00;95437.16;10530914;28;1946;-74
2023/09/19 02:26:59;;;;;;;;;;;;;;;17.03;100.00;95435.44;10505943;28;1953;-75
2023/09/19 02:32:03;;;;;;;;;;;;;;;17.03;100.00;95430.00;10526767;28;2751;-74
2023/09/19 02:37:08;;;;;;;;;;;;;;;16.96;100.00;95440.56;10527259;28;1944;-73
2023/09/19 02:42:11;;;;;;;;;;;;;;;16.84;100.00;95437.69;10523530;28;4702;-75
2023/09/19 02:47:15;;;;;;;;;;;;;;;16.82;100.00;95453.50;10530141;28;1973;-75
2023/09/19 02:52:18;;;;;;;;;;;;;;;16.89;100.00;95456.53;10508975;28;1973;-74
2023/09/19 02:57:24;;;;;;;;;;;;;;;16.87;100.00;95453.34;10528816;28;1984;-75
2023/09/19 03:02:34;;;;;;;;;;;;;;;16.88;100.00;95454.94;10530488;28;1998;-75
2023/09/19 03:07:38;;;;;;;;;;;;;;;16.87;100.00;95448.72;10521395;28;2004;-76
2023/09/19 03:12:43;;;;;;;;;;;;;;;16.86;100.00;95446.31;10530313;28;1992;-78
2023/09/19 03:17:47;;;;;;;;;;;;;;;16.73;100.00;95448.06;10530461;28;2663;-76
2023/09/19 03:22:52;;;;;;;;;;;;;;;16.73;100.00;95451.63;10520018;28;1960;-76
2023/09/19 03:27:57;;;;;;;;;;;;;;;16.78;100.00;95453.34;10532125;28;1969;-74
2023/09/19 03:33:04;;;;;;;;;;;;;;;16.63;100.00;95453.81;10527101;28;2008;-75
2023/09/19 03:38:10;;;;;;;;;;;;;;;16.53;100.00;95452.19;10526195;28;2031;-76
2023/09/19 03:43:14;;;;;;;;;;;;;;;16.41;100.00;95457.47;10503047;28;4742;-77
2023/09/19 03:48:17;;;;;;;;;;;;;;;16.59;100.00;95460.97;10508070;28;1986;-76
2023/09/19 03:53:22;;;;;;;;;;;;;;;16.53;100.00;95468.47;10523669;28;1943;-76
2023/09/19 03:58:25;;;;;;;;;;;;;;;16.43;100.00;95466.09;10524759;28;1975;-76
2023/09/19 04:03:34;;;;;;;;;;;;;;;16.61;100.00;95470.41;10500884;28;2724;-76
2023/09/19 04:08:38;;;;;;;;;;;;;;;16.54;100.00;95475.53;10510461;28;2322;-77
2023/09/19 04:13:43;;;;;;;;;;;;;;;16.50;100.00;95474.56;10520391;28;2191;-76
2023/09/19 04:18:47;;;;;;;;;;;;;;;16.43;100.00;95471.53;10506003;28;1988;-78
2023/09/19 04:23:51;;;;;;;;;;;;;;;16.47;100.00;95484.13;10527960;28;1940;-76
2023/09/19 04:28:53;;;;;;;;;;;;;;;16.38;100.00;95486.03;10511070;28;1876;-74
2023/09/19 04:33:59;;;;;;;;;;;;;;;16.48;100.00;95484.94;10532217;28;1972;-75
2023/09/19 04:39:07;;;;;;;;;;;;;;;16.48;100.00;95498.50;10528945;28;2563;-74
2023/09/19 04:44:10;;;;;;;;;;;;;;;16.51;100.00;95499.78;10518823;28;2134;-74
2023/09/19 04:49:16;;;;;;;;;;;;;;;16.53;100.00;95509.19;10524008;28;2631;-75
2023/09/19 04:54:22;;;;;;;;;;;;;;;16.69;100.00;95523.88;10520865;28;1873;-76
2023/09/19 04:59:29;;;;;;;;;;;;;;;16.37;100.00;95527.03;10506722;28;2005;-75
2023/09/19 05:04:36;;;;;;;;;;;;;;;16.32;100.00;95543.47;10523103;28;1971;-77
2023/09/19 05:09:38;;;;;;;;;;;;;;;16.42;100.00;95535.84;10485720;28;1992;-76
2023/09/19 05:14:42;;;;;;;;;;;;;;;16.47;100.00;95551.94;10502011;28;2040;-75
2023/09/19 05:19:45;;;;;;;;;;;;;;;16.52;100.00;95551.00;10503828;28;2106;-75
2023/09/19 05:24:49;;;;;;;;;;;;;;;16.56;100.00;95568.25;10518467;28;2020;-76
2023/09/19 05:29:55;;;;;;;;;;;;;;;16.51;100.00;95562.97;10523262;28;1983;-76
2023/09/19 05:34:59;;;;;;;;;;;;;;;16.75;100.00;95560.66;10527800;28;3049;-75
2023/09/19 05:40:07;;;;;;;;;;;;;;;16.77;100.00;95556.81;10509795;28;4641;-76
2023/09/19 05:45:12;;;;;;;;;;;;;;;16.65;100.00;95562.84;10533131;28;1970;-75
2023/09/19 05:50:19;;;;;;;;;;;;;;;16.65;100.00;95566.34;10529302;28;1960;-76
2023/09/19 05:55:24;;;;;;;;;;;;;;;16.53;100.00;95579.72;10532973;28;1967;-76
2023/09/19 06:05:49;;;;;;;;;;;;;;;17.13;100.00;95580.97;10513896;28;1837;-77
2023/09/19 06:10:53;;;;;;;;;;;;;;;17.64;100.00;95576.59;10516013;28;1996;-76
2023/09/19 06:15:59;;;;;;;;;;;;;;;18.12;100.00;95589.09;10514561;28;2825;-76
2023/09/19 06:21:07;;;;;;;;;;;;;;;18.12;100.00;95583.66;10530906;28;1992;-77
2023/09/19 06:26:13;;;;;;;;;;;;;;;17.89;100.00;95588.56;10507112;28;1917;-74
2023/09/19 06:31:15;;;;;;;;;;;;;;;17.89;100.00;95585.84;10524796;28;1858;-74
2023/09/19 06:36:21;;;;;;;;;;;;;;;17.83;100.00;95587.94;10527012;28;1881;-73
2023/09/19 06:41:27;;;;;;;;;;;;;;;17.50;100.00;95596.59;10525985;28;1979;-74
2023/09/19 06:46:35;;;;;;;;;;;;;;;17.70;100.00;95599.75;10525641;28;1867;-74
2023/09/19 06:51:43;;;;;;;;;;;;;;;18.05;100.00;95605.94;10526221;28;1834;-75
2023/09/19 06:56:52;;;;;;;;;;;;;;;18.69;100.00;95608.53;10500778;28;1912;-76
2023/09/19 07:01:59;;;;;;;;;;;;;;;18.89;100.00;95607.81;10490815;28;2654;-75
2023/09/19 07:07:04;;;;;;;;;;;;;;;19.86;100.00;95614.88;10530725;28;1878;-76
2023/09/19 07:12:09;;;;;;;;;;;;;;;19.92;100.00;95615.47;10507229;28;1834;-75
2023/09/19 07:17:17;;;;;;;;;;;;;;;19.20;100.00;95609.31;10530318;28;1859;-72
2023/09/19 07:22:23;;;;;;;;;;;;;;;18.93;100.00;95623.47;10526479;28;1980;-73
2023/09/19 07:27:29;;;;;;;;;;;;;;;18.81;100.00;95635.88;10528598;28;1873;-73
2023/09/19 07:32:36;;;;;;;;;;;;;;;19.13;100.00;95628.13;10526561;28;1850;-74
2023/09/19 07:37:42;;;;;;;;;;;;;;;19.21;100.00;95632.72;10530294;28;1922;-77
2023/09/19 07:42:50;;;;;;;;;;;;;;;19.52;100.00;95623.34;10507696;28;4698;-76
2023/09/19 07:47:55;;;;;;;;;;;;;;;19.35;100.00;95614.19;10507993;28;2681;-75
2023/09/19 07:52:59;;;;;;;;;;;;;;;18.82;100.00;95632.00;10507259;28;1861;-74
2023/09/19 07:58:07;;;;;;;;;;;;;;;19.19;100.00;95640.44;10504787;28;1910;-75
2023/09/19 08:03:14;;;;;;;;;;;;;;;19.96;100.00;95644.44;10522079;28;1899;-74
2023/09/19 08:08:22;;;;;;;;;;;;;;;20.32;100.00;95632.03;10502809;28;1800;-73
2023/09/19 08:13:25;;;;;;;;;;;;;;;20.29;100.00;95640.88;10519057;28;2026;-73
2023/09/19 08:18:30;;;;;;;;;;;;;;;20.06;100.00;95636.97;10519943;28;1916;-74
2023/09/19 08:23:33;;;;;;;;;;;;;;;20.02;100.00;95639.56;10485084;28;1884;-74
2023/09/19 08:28:40;;;;;;;;;;;;;;;19.19;100.00;95648.59;10523488;28;1857;-75
2023/09/19 08:33:48;;;;;;;;;;;;;;;19.49;100.00;95645.84;10500811;28;2390;-74
2023/09/19 08:38:53;;;;;;;;;;;;;;;19.61;100.00;95649.44;10522476;28;1906;-74
2023/09/19 08:43:56;;;;;;;;;;;;;;;19.63;100.00;95643.66;10521849;28;1830;-73
2023/09/19 08:48:59;;;;;;;;;;;;;;;19.89;100.00;95638.75;10522349;28;1869;-73
2023/09/19 08:54:13;;;;;;;;;;;;;;;20.26;100.00;95638.84;10518979;28;1853;-73
2023/09/19 08:59:40;;;;;;;;;;;;;;;20.31;100.00;95638.63;10519320;28;2021;-74
2023/09/19 09:04:47;;;;;;;;;;;;;;;21.23;100.00;95637.25;10489906;28;1941;-73
2023/09/19 09:09:50;;;;;;;;;;;;;;;21.01;100.00;95650.28;10517111;28;1884;-75
2023/09/19 09:15:00;;;;;;;;;;;;;;;20.42;100.00;95656.16;10527331;28;1770;-74
2023/09/19 09:20:08;;;;;;;;;;;;;;;20.09;100.00;95658.13;10528204;28;2670;-77
2023/09/19 09:25:18;;;;;;;;;;;;;;;20.23;100.00;95653.97;10508768;28;1878;-74
2023/09/19 09:30:22;;;;;;;;;;;;;;;20.23;100.00;95648.50;10533477;28;1856;-72
2023/09/19 09:35:25;;;;;;;;;;;;;;;21.15;100.00;95641.72;10508229;28;1810;-73
2023/09/19 09:40:36;;;;;;;;;;;;;;;21.93;100.00;95639.69;10527280;28;4758;-74
2023/09/19 09:45:48;;;;;;;;;;;;;;;21.61;100.00;95638.78;10528869;28;1888;-73
2023/09/19 09:50:56;;;;;;;;;;;;;;;21.45;100.00;95650.47;10512281;28;1894;-73
2023/09/19 09:56:08;;;;;;;;;;;;;;;20.80;100.00;95649.59;10531315;28;1889;-71
2023/09/19 10:01:26;;;;;;;;;;;;;;;20.49;100.00;95641.97;10528371;28;1913;-73
2023/09/19 10:06:30;;;;;;;;;;;;;;;20.44;100.00;95653.88;10512201;28;1901;-72
2023/09/19 10:11:37;;;;;;;;;;;;;;;20.57;100.00;95662.13;10509563;28;1968;-73
2023/09/19 10:16:44;;;;;;;;;;;;;;;21.00;100.00;95665.09;10525926;28;1901;-73
2023/09/19 10:21:48;;;;;;;;;;;;;;;21.61;100.00;95653.25;10524819;28;2567;-73
2023/09/19 10:26:51;;;;;;;;;;;;;;;22.03;100.00;95656.41;10505879;28;1888;-71
2023/09/19 10:31:58;;;;;;;;;;;;;;;21.66;100.00;95644.00;10505752;28;1880;-76
2023/09/19 10:37:05;;;;;;;;;;;;;;;21.30;100.00;95653.91;10502963;28;1833;-75
2023/09/19 10:42:12;;;;;;;;;;;;;;;21.44;100.00;95657.09;10524774;28;1914;-76
2023/09/19 10:47:19;;;;;;;;;;;;;;;21.42;100.00;95667.56;10521754;28;2056;-75
2023/09/19 10:52:23;;;;;;;;;;;;;;;21.66;100.00;95658.50;10529053;28;1888;-75
2023/09/19 10:57:28;;;;;;;;;;;;;;;21.85;100.00;95657.84;10507538;28;1821;-81
2023/09/19 11:02:44;;;;;;;;;;;;;;;22.09;100.00;95655.03;10535902;28;1905;-82
2023/09/19 11:07:49;;;;;;;;;;;;;;;22.44;100.00;95653.56;10533069;28;1826;-78
2023/09/19 11:12:54;;;;;;;;;;;;;;;22.55;100.00;95654.63;10536730;28;1838;-83
2023/09/19 11:17:58;;;;;;;;;;;;;;;22.53;100.00;95652.25;10538168;28;2000;-80
2023/09/19 11:23:04;;;;;;;;;;;;;;;23.26;100.00;95647.34;10537424;28;1968;-81
2023/09/19 11:28:32;;;;;;;;;;;;;;;23.79;100.00;95639.47;10531284;28;1966;-78
2023/09/19 11:33:38;;;;;;;;;;;;;;;23.79;97.45;95633.97;10533498;28;1902;-80
2023/09/19 11:38:44;;;;;;;;;;;;;;;23.16;97.74;95637.72;10533551;28;1967;-76
2023/09/19 11:43:55;;;;;;;;;;;;;;;22.71;100.00;95635.44;10530675;28;1877;-76
2023/09/19 11:49:00;;;;;;;;;;;;;;;22.47;100.00;95637.22;10530186;28;1872;-73
2023/09/19 11:54:06;;;;;;;;;;;;;;;22.80;100.00;95636.06;10523213;28;1886;-75
2023/09/19 11:59:10;;;;;;;;;;;;;;;22.34;100.00;95643.94;10523282;28;1902;-73
2023/09/19 12:04:16;;;;;;;;;;;;;;;22.56;100.00;95643.31;10518042;28;2518;-74
2023/09/19 12:09:23;;;;;;;;;;;;;;;22.63;100.00;95623.53;10504974;28;1884;-73
2023/09/19 12:14:33;;;;;;;;;;;;;;;22.88;100.00;95629.63;10509349;28;1870;-72
2023/09/19 12:19:49;;;;;;;;;;;;;;;22.96;100.00;95627.84;10522760;28;1910;-71
2023/09/19 12:24:57;;;;;;;;;;;;;;;23.32;98.89;95630.25;10524280;28;1922;-77
2023/09/19 12:30:01;;;;;;;;;;;;;;;23.99;100.00;95632.81;10521663;28;1806;-76
2023/09/19 12:35:26;;;;;;;;;;;;;;;24.32;91.88;95634.22;10519572;28;1937;-73
2023/09/19 12:40:33;;;;;;;;;;;;;;;24.54;87.07;95633.44;10508654;28;4761;-74
2023/09/19 12:45:41;;;;;;;;;;;;;;;23.28;93.09;95626.63;10527586;28;2026;-73
2023/09/19 12:50:44;;;;;;;;;;;;;;;23.03;96.22;95620.59;10533552;28;2863;-75
2023/09/19 12:55:52;;;;;;;;;;;;;;;22.22;99.29;95619.38;10530683;28;1918;-73
2023/09/19 13:00:56;;;;;;;;;;;;;;;22.09;100.00;95630.41;10528464;28;2019;-74
2023/09/19 13:06:02;;;;;;;;;;;;;;;21.28;100.00;95637.84;10499551;28;1845;-72
2023/09/19 13:11:06;;;;;;;;;;;;;;;20.72;100.00;95636.84;10511190;28;1870;-73
2023/09/19 13:16:14;;;;;;;;;;;;;;;20.70;100.00;95631.75;10530964;28;1889;-72
2023/09/19 13:21:24;;;;;;;;;;;;;;;20.94;100.00;95625.47;10530157;28;1992;-73
2023/09/19 13:26:28;;;;;;;;;;;;;;;21.08;100.00;95618.84;10531119;28;1881;-74
2023/09/19 13:31:33;;;;;;;;;;;;;;;21.12;100.00;95611.53;10532119;28;1905;-72
2023/09/19 13:36:37;;;;;;;;;;;;;;;21.30;100.00;95594.56;10526069;28;2750;-75
2023/09/19 13:41:39;;;;;;;;;;;;;;;21.31;100.00;95601.63;10512603;28;4709;-74
2023/09/19 13:46:45;;;;;;;;;;;;;;;21.33;100.00;95616.88;10526117;28;1844;-71
2023/09/19 13:51:51;;;;;;;;;;;;;;;21.38;100.00;95592.03;10506794;28;1896;-71
2023/09/19 13:56:55;;;;;;;;;;;;;;;21.66;100.00;95581.09;10527898;28;1893;-73
2023/09/19 14:01:58;;;;;;;;;;;;;;;22.20;100.00;95578.63;10507672;28;1914;-74
2023/09/19 14:07:02;;;;;;;;;;;;;;;22.51;100.00;95577.84;10522119;28;1831;-71
2023/09/19 14:12:09;;;;;;;;;;;;;;;22.43;100.00;95576.09;10528191;28;1952;-71
2023/09/19 14:17:11;;;;;;;;;;;;;;;22.16;100.00;95583.25;10529628;28;1886;-70
2023/09/19 14:22:14;;;;;;;;;;;;;;;22.41;100.00;95583.09;10524875;28;2677;-71
2023/09/19 14:27:19;;;;;;;;;;;;;;;22.13;100.00;95573.78;10510857;28;1950;-73
2023/09/19 14:32:22;;;;;;;;;;;;;;;22.12;100.00;95572.19;10526546;28;1893;-78
2023/09/19 14:37:29;;;;;;;;;;;;;;;21.90;100.00;95564.56;10507483;28;2097;-74
2023/09/19 14:42:38;;;;;;;;;;;;;;;21.65;100.00;95563.09;10511774;28;4717;-82
2023/09/19 14:47:46;;;;;;;;;;;;;;;21.64;100.00;95554.09;10513310;28;1874;-79
2023/09/19 14:52:49;;;;;;;;;;;;;;;21.58;100.00;95560.97;10525228;28;1818;-81
2023/09/19 14:57:58;;;;;;;;;;;;;;;21.44;100.00;95544.16;10524361;28;1849;-78
2023/09/19 15:03:02;;;;;;;;;;;;;;;21.40;100.00;95546.81;10531492;28;1913;-78
2023/09/19 15:08:07;;;;;;;;;;;;;;;21.43;100.00;95545.28;10523354;28;2751;-81
2023/09/19 15:13:10;;;;;;;;;;;;;;;21.31;100.00;95552.44;10527389;28;2585;-74
2023/09/19 15:18:14;;;;;;;;;;;;;;;21.05;100.00;95552.00;10507517;28;1932;-76
2023/09/19 15:23:25;;;;;;;;;;;;;;;20.83;100.00;95550.59;10508724;28;2045;-75
2023/09/19 15:28:36;;;;;;;;;;;;;;;20.93;100.00;95544.66;10525241;28;2011;-76
2023/09/19 15:33:41;;;;;;;;;;;;;;;20.95;100.00;95556.03;10506647;28;1915;-77
2023/09/19 15:38:47;;;;;;;;;;;;;;;20.85;100.00;95545.56;10507424;28;1914;-72
2023/09/19 15:43:52;;;;;;;;;;;;;;;20.77;100.00;95554.69;10501364;28;1937;-76
2023/09/19 15:48:58;;;;;;;;;;;;;;;20.67;100.00;95544.22;10527024;28;1825;-74
2023/09/19 15:54:02;;;;;;;;;;;;;;;20.47;100.00;95548.69;10503115;28;2688;-75
2023/09/19 15:59:12;;;;;;;;;;;;;;;20.52;100.00;95543.00;10502431;28;1858;-74
2023/09/19 16:04:22;;;;;;;;;;;;;;;20.43;100.00;95545.81;10520909;28;1922;-74
2023/09/19 16:09:25;;;;;;;;;;;;;;;20.42;100.00;95557.88;10507218;28;1917;-77
2023/09/19 16:14:30;;;;;;;;;;;;;;;20.27;100.00;95549.56;10499898;28;2027;-76
2023/09/19 16:19:36;;;;;;;;;;;;;;;20.24;100.00;95557.31;10524596;28;1854;-76
2023/09/19 16:24:41;;;;;;;;;;;;;;;20.17;100.00;95550.81;10514740;28;1891;-77
2023/09/19 16:29:50;;;;;;;;;;;;;;;20.06;100.00;95564.09;10510285;28;1915;-76
2023/09/19 16:34:53;;;;;;;;;;;;;;;19.98;100.00;95563.09;10531234;28;1879;-74
2023/09/19 16:39:57;;;;;;;;;;;;;;;19.80;100.00;95561.69;10504004;28;2767;-75
2023/09/19 16:45:02;;;;;;;;;;;;;;;19.77;100.00;95565.06;10505825;28;2020;-77
2023/09/19 16:50:05;;;;;;;;;;;;;;;19.60;100.00;95559.81;10525857;28;1874;-75
2023/09/19 16:55:16;;;;;;;;;;;;;;;19.44;100.00;95563.13;10527136;28;1927;-76
2023/09/19 17:00:21;;;;;;;;;;;;;;;19.22;100.00;95558.03;10520876;28;1974;-73
2023/09/19 17:05:28;;;;;;;;;;;;;;;18.92;100.00;95570.13;10503025;28;1907;-74
2023/09/19 17:10:34;;;;;;;;;;;;;;;18.79;100.00;95570.06;10502513;28;2002;-74
2023/09/19 17:15:37;;;;;;;;;;;;;;;18.63;100.00;95571.72;10517921;28;1956;-72
2023/09/19 17:20:41;;;;;;;;;;;;;;;18.39;100.00;95569.63;10505423;28;1934;-73
2023/09/19 17:25:46;;;;;;;;;;;;;;;18.23;100.00;95569.38;10519663;28;2542;-71
2023/09/19 17:30:50;;;;;;;;;;;;;;;18.01;100.00;95577.81;10528218;28;1810;-71
2023/09/19 17:35:54;;;;;;;;;;;;;;;17.79;100.00;95568.72;10535595;28;1846;-71
2023/09/19 17:41:07;;;;;;;;;;;;;;;17.68;100.00;95580.25;10531477;28;4674;-72
2023/09/19 17:46:12;;;;;;;;;;;;;;;17.61;100.00;95588.88;10514192;28;1969;-72
2023/09/19 17:51:16;;;;;;;;;;;;;;;17.66;100.00;95583.28;10531224;28;1850;-72
2023/09/19 17:56:22;;;;;;;;;;;;;;;17.68;100.00;95591.09;10538730;28;2103;-71
2023/09/19 18:01:25;;;;;;;;;;;;;;;17.66;100.00;95596.88;10510292;28;1909;-70
2023/09/19 18:06:28;;;;;;;;;;;;;;;17.61;100.00;95601.69;10526266;28;1865;-72
2023/09/19 18:11:32;;;;;;;;;;;;;;;17.52;100.00;95609.84;10528331;28;1948;-74
2023/09/19 18:16:37;;;;;;;;;;;;;;;17.44;100.00;95607.94;10511570;28;2004;-71
2023/09/19 18:21:44;;;;;;;;;;;;;;;17.32;100.00;95613.22;10527583;28;2595;-70
2023/09/19 18:26:57;;;;;;;;;;;;;;;17.36;100.00;95612.25;10535242;28;1833;-71
2023/09/19 18:32:01;;;;;;;;;;;;;;;17.24;100.00;95621.06;10533691;28;1846;-71
2023/09/19 18:37:10;;;;;;;;;;;;;;;17.21;100.00;95621.69;10531113;28;1956;-70
2023/09/19 18:42:14;;;;;;;;;;;;;;;17.15;100.00;95625.69;10521074;28;4835;-72
2023/09/19 18:47:22;;;;;;;;;;;;;;;17.00;100.00;95620.72;10531493;28;2197;-71
2023/09/19 18:57:52;;;;;;;;;;;;;;;16.80;100.00;95643.84;10560741;27;1891;-76
2023/09/19 19:02:55;;;;;;;;;;;;;;;16.62;100.00;95651.13;10563860;28;1859;-71
2023/09/19 19:07:58;;;;;;;;;;;;;;;16.57;100.00;95647.75;10557557;28;1990;-72
2023/09/19 19:13:01;;;;;;;;;;;;;;;16.51;100.00;95657.94;10560370;28;1901;-71
2023/09/19 19:18:04;;;;;;;;;;;;;;;16.55;100.00;95656.19;10555760;28;1939;-72
2023/09/19 19:23:08;;;;;;;;;;;;;;;16.45;100.00;95656.47;10557072;28;1857;-72
2023/09/19 19:28:10;;;;;;;;;;;;;;;16.44;100.00;95666.53;10559319;28;2040;-72
2023/09/19 19:33:13;;;;;;;;;;;;;;;16.40;100.00;95662.03;10556701;28;1957;-73
2023/09/19 19:38:16;;;;;;;;;;;;;;;16.31;100.00;95663.91;10559490;28;2999;-72
2023/09/19 19:43:19;;;;;;;;;;;;;;;16.23;100.00;95661.97;10559271;28;4635;-73
2023/09/19 19:48:21;;;;;;;;;;;;;;;16.24;100.00;95664.38;10555938;28;1924;-72
2023/09/19 19:53:23;;;;;;;;;;;;;;;16.21;100.00;95664.97;10553502;28;1977;-72
2023/09/19 19:58:26;;;;;;;;;;;;;;;16.18;100.00;95665.63;10557019;28;1813;-72
2023/09/19 20:03:29;;;;;;;;;;;;;;;16.12;100.00;95667.66;10554678;28;1886;-72
2023/09/19 20:08:32;;;;;;;;;;;;;;;16.01;100.00;95670.94;10527936;28;2039;-72
2023/09/19 20:13:34;;;;;;;;;;;;;;;15.94;100.00;95677.59;10525079;28;1906;-71
2023/09/19 20:18:39;;;;;;;;;;;;;;;15.92;100.00;95679.81;10526498;28;1904;-72
2023/09/19 20:23:43;;;;;;;;;;;;;;;15.82;100.00;95680.06;10527725;28;3184;-74
2023/09/19 20:28:47;;;;;;;;;;;;;;;15.83;100.00;95687.09;10525631;28;1961;-71
2023/09/19 20:33:50;;;;;;;;;;;;;;;15.75;100.00;95697.88;10524653;28;1913;-73
2023/09/19 20:38:54;;;;;;;;;;;;;;;15.70;100.00;95692.56;10527014;28;1842;-73
2023/09/19 20:43:57;;;;;;;;;;;;;;;15.67;100.00;95699.44;10526209;28;4714;-73
2023/09/19 20:49:01;;;;;;;;;;;;;;;15.60;100.00;95699.81;10524707;28;1985;-72
2023/09/19 20:54:03;;;;;;;;;;;;;;;15.67;100.00;95711.06;10526362;28;1981;-72
2023/09/19 20:59:06;;;;;;;;;;;;;;;15.68;100.00;95711.84;10522295;28;1925;-72
2023/09/19 21:04:09;;;;;;;;;;;;;;;15.76;100.00;95707.59;10525438;28;1840;-74
2023/09/19 21:09:11;;;;;;;;;;;;;;;15.74;100.00;95707.91;10522989;28;2928;-72
2023/09/19 21:14:14;;;;;;;;;;;;;;;15.67;100.00;95710.25;10521513;28;1957;-71
2023/09/19 21:19:17;;;;;;;;;;;;;;;15.58;100.00;95698.50;10524801;28;1924;-72
2023/09/19 21:24:20;;;;;;;;;;;;;;;15.50;100.00;95707.38;10524326;28;1909;-72
2023/09/19 21:29:23;;;;;;;;;;;;;;;15.40;100.00;95700.31;10524401;28;1880;-72
2023/09/19 21:34:25;;;;;;;;;;;;;;;15.45;100.00;95707.47;10525113;28;1968;-72
2023/09/19 21:39:28;;;;;;;;;;;;;;;15.44;100.00;95714.81;10521875;28;1860;-71
2023/09/19 21:44:30;;;;;;;;;;;;;;;15.49;100.00;95720.13;10521056;28;1830;-73
2023/09/19 21:49:32;;;;;;;;;;;;;;;15.43;100.00;95715.94;10522696;28;1867;-72
2023/09/19 21:54:35;;;;;;;;;;;;;;;15.42;100.00;95722.44;10519911;28;1984;-73
2023/09/19 21:59:37;;;;;;;;;;;;;;;15.39;100.00;95721.13;10520218;28;1814;-73
2023/09/19 22:04:40;;;;;;;;;;;;;;;15.18;100.00;95724.59;10521598;28;1873;-73
2023/09/19 22:09:43;;;;;;;;;;;;;;;15.06;100.00;95717.81;10525567;28;1582;-73
2023/09/19 22:14:45;;;;;;;;;;;;;;;15.08;100.00;95717.53;10524494;28;1910;-71
2023/09/19 22:19:48;;;;;;;;;;;;;;;15.10;100.00;95718.00;10521419;28;1885;-72
2023/09/19 22:24:53;;;;;;;;;;;;;;;15.16;100.00;95719.50;10520140;28;2415;-73
2023/09/19 22:29:56;;;;;;;;;;;;;;;15.00;100.00;95710.88;10517655;28;1952;-72
2023/09/19 22:35:01;;;;;;;;;;;;;;;15.07;100.00;95703.16;10521337;28;1925;-71
2023/09/19 22:40:11;;;;;;;;;;;;;;;15.09;100.00;95708.28;10519490;28;4722;-71
2023/09/19 22:45:13;;;;;;;;;;;;;;;15.17;100.00;95717.59;10520403;28;1983;-71
2023/09/19 22:50:16;;;;;;;;;;;;;;;15.06;100.00;95717.00;10521072;28;1881;-71
2023/09/19 22:55:24;;;;;;;;;;;;;;;15.05;100.00;95723.53;10520759;28;1945;-71
2023/09/19 23:00:28;;;;;;;;;;;;;;;15.04;100.00;95711.91;10517349;28;1926;-71
2023/09/19 23:05:33;;;;;;;;;;;;;;;15.02;100.00;95722.25;10523872;28;1974;-76
2023/09/19 23:10:35;;;;;;;;;;;;;;;14.93;100.00;95704.28;10521996;28;2361;-72
2023/09/19 23:15:38;;;;;;;;;;;;;;;14.99;100.00;95711.19;10500360;28;1918;-71
2023/09/19 23:20:42;;;;;;;;;;;;;;;14.90;100.00;95703.00;10518681;28;1920;-73
2023/09/19 23:25:46;;;;;;;;;;;;;;;14.88;100.00;95716.00;10519992;28;1926;-73
2023/09/19 23:30:52;;;;;;;;;;;;;;;14.86;100.00;95712.81;10522011;28;1848;-72
2023/09/19 23:35:55;;;;;;;;;;;;;;;14.87;100.00;95711.72;10523144;28;1921;-71
2023/09/19 23:40:58;;;;;;;;;;;;;;;14.88;100.00;95706.00;10520365;28;4777;-76
2023/09/19 23:46:04;;;;;;;;;;;;;;;14.86;100.00;95702.78;10527354;28;1895;-76
2023/09/19 23:51:09;;;;;;;;;;;;;;;14.80;100.00;95704.00;10525180;28;1916;-75
2023/09/19 23:56:14;;;;;;;;;;;;;;;14.83;100.00;95708.03;10524432;28;2652;-72
